Terminal Aerodrome Forecast
Issued by NWS

Home | Current Version | Previous Version | Graphics & Text | Print | Product List | Glossary On
Versions: 1 2 3 4 5 6 7 8 9 10 11 12 13 14 15 16 17 18 19
000
FTUS43 KABR 281725
TAFPIR
TAF
KPIR 281725Z 2818/2918 13006KT P6SM SCT100
     FM282000 04006KT P6SM BKN150
     FM291300 11009KT P6SM BKN070=

USA.gov is the U.S. government's official web portal to all federal, state and local government web resources and services.